Reeve, Indiana
Current Conditions -  °F | °C
As of 5:55 PM on Saturday 22 Nov 2014 (Local Time) from KDCY Reporting Station
Overcast Overcast  
Wind Chill: 52°   Ceiling: 8500
Heat Index: 52°   Visibility: 10mi
Dew Point: 44°   Wind: 6mph
Humidity: 73%   Direction: 170°S
Pressure: 30.03"   Gusts: NA
Location:  38.6074°N, 86.9234°W
Report Text: KDCY 222355Z AUTO 17005KT 10SM SCT060 OVC085 11/07 A3003 RMK AO2 T01130067 10156 20111
Loading
Personal Weather Stations






























Interactive Weather Map New forecast layout! Learn more

10-Day Weather Forecast

Advertisements
Track Severe Weather on mobile